Time;durP1;ratioP1;P1;durP2;ratioP2;P2;SDS_P1;SDS_P2;PMS_P1;PMS_P2;Temp;Humidity;BMP_temperature;BMP_pressure;BME280_temperature;BME280_humidity;BME280_pressure;Samples;Min_cycle;Max_cycle;Signal;HPM_P1;HPM_P2
2022/11/15 00:00:35;;;;;;;1.60;1.17;;;;;;;-145.69;100.00;52559.25;5114449;28;20197;-77
2022/11/15 00:03:03;;;;;;;1.70;1.03;;;;;;;-145.69;100.00;52559.25;5114390;28;20198;-77
2022/11/15 00:05:29;;;;;;;1.80;1.20;;;;;;;-145.69;100.00;52579.06;5114044;28;20193;-77
2022/11/15 00:07:57;;;;;;;1.67;1.20;;;;;;;-145.69;100.00;52561.22;5098117;28;20221;-77
2022/11/15 00:10:24;;;;;;;2.07;1.30;;;;;;;-145.69;100.00;52559.25;5097647;27;20248;-79
2022/11/15 00:12:50;;;;;;;8.47;1.60;;;;;;;-145.69;100.00;52586.97;5113832;28;20193;-77
2022/11/15 00:15:19;;;;;;;2.20;1.40;;;;;;;-145.69;100.00;52581.03;5114134;28;20284;-78
2022/11/15 00:17:49;;;;;;;6.03;1.50;;;;;;;-145.69;100.00;52598.84;5113859;28;20198;-77
2022/11/15 00:20:18;;;;;;;6.50;1.50;;;;;;;-145.69;100.00;52624.59;5113664;28;20228;-77
2022/11/15 00:22:44;;;;;;;4.33;1.30;;;;;;;-145.69;100.00;52592.91;5114200;28;20205;-77
2022/11/15 00:25:11;;;;;;;2.43;1.30;;;;;;;-145.69;100.00;52602.81;5113107;28;20193;-77
2022/11/15 00:27:40;;;;;;;4.33;1.60;;;;;;;-145.69;100.00;52585.00;5113958;28;20236;-77
2022/11/15 00:30:07;;;;;;;3.57;1.70;;;;;;;-145.69;100.00;52575.09;5113790;28;20674;-79
2022/11/15 00:32:34;;;;;;;2.47;1.60;;;;;;;-145.69;100.00;52567.16;5113743;28;20229;-77
2022/11/15 00:35:00;;;;;;;2.70;1.70;;;;;;;-145.69;100.00;52583.00;5113487;28;20241;-77
2022/11/15 00:37:28;;;;;;;2.90;1.40;;;;;;;-145.69;100.00;52575.09;5113570;28;20197;-77
2022/11/15 00:39:59;;;;;;;2.83;1.33;;;;;;;-145.69;100.00;52586.97;5113674;28;20213;-79
2022/11/15 00:42:26;;;;;;;4.13;1.40;;;;;;;-145.69;100.00;52561.22;5113786;28;20204;-77
2022/11/15 00:44:52;;;;;;;4.37;1.23;;;;;;;-145.69;100.00;52577.06;5113408;28;20197;-76
2022/11/15 00:47:18;;;;;;;6.40;2.17;;;;;;;-145.69;100.00;52585.00;5113179;28;20705;-77
2022/11/15 00:49:45;;;;;;;2.37;1.57;;;;;;;-145.69;100.00;52563.22;5113449;28;20198;-77
2022/11/15 00:52:11;;;;;;;3.57;1.63;;;;;;;-145.69;100.00;52586.97;5113752;28;20200;-77
2022/11/15 00:54:39;;;;;;;3.07;1.50;;;;;;;-145.69;100.00;52594.91;5113110;28;20201;-77
2022/11/15 00:57:08;;;;;;;2.77;1.77;;;;;;;-145.69;100.00;52618.66;5113263;28;20209;-77
2022/11/15 00:59:34;;;;;;;3.37;2.07;;;;;;;-145.69;100.00;52610.75;5113416;28;20208;-77
2022/11/15 01:02:00;;;;;;;1.90;1.43;;;;;;;-145.69;100.00;52575.09;5113048;28;20567;-77
2022/11/15 01:04:27;;;;;;;6.50;1.47;;;;;;;-145.69;100.00;52602.81;5112624;28;20193;-77
2022/11/15 01:06:54;;;;;;;6.80;1.30;;;;;;;-145.69;100.00;52594.91;5112805;28;20197;-77
2022/11/15 01:09:20;;;;;;;2.53;1.50;;;;;;;-145.69;100.00;52583.00;5113289;28;20284;-77
2022/11/15 01:11:48;;;;;;;4.27;1.70;;;;;;;-145.69;100.00;52543.41;5112818;28;20189;-77
2022/11/15 01:14:14;;;;;;;2.97;1.47;;;;;;;-145.69;100.00;52586.97;5113131;28;20208;-77
2022/11/15 01:16:44;;;;;;;3.97;1.50;;;;;;;-145.69;100.00;52608.75;5113167;28;20648;-77
2022/11/15 01:19:11;;;;;;;2.03;1.00;;;;;;;-145.69;100.00;52612.72;5113073;28;20198;-77
2022/11/15 01:21:37;;;;;;;2.20;1.50;;;;;;;-145.69;100.00;52594.91;5112775;28;20274;-77
2022/11/15 01:24:04;;;;;;;4.13;1.37;;;;;;;-145.69;100.00;52573.13;5113180;28;20260;-78
2022/11/15 01:26:31;;;;;;;7.03;1.50;;;;;;;-145.69;100.00;52585.00;5113168;28;20201;-79
2022/11/15 01:28:59;;;;;;;2.77;1.50;;;;;;;-145.69;100.00;52594.91;5097183;28;20228;-79
2022/11/15 01:31:25;;;;;;;5.33;1.50;;;;;;;-145.69;100.00;52569.16;5092799;28;20201;-79
2022/11/15 01:33:52;;;;;;;4.47;1.20;;;;;;;-145.69;100.00;52614.72;5092852;28;20658;-79
2022/11/15 01:36:23;;;;;;;3.07;1.30;;;;;;;-145.69;100.00;52604.81;5092522;28;20226;-79
2022/11/15 01:38:55;;;;;;;2.40;1.20;;;;;;;-145.69;100.00;52608.75;5092456;28;20197;-79
2022/11/15 01:41:23;;;;;;;4.87;1.27;;;;;;;-145.69;100.00;52606.78;5092803;28;20259;-78
2022/11/15 01:43:53;;;;;;;3.97;1.57;;;;;;;-145.69;100.00;52594.91;5112047;28;20197;-79
2022/11/15 01:46:29;;;;;;;4.93;1.40;;;;;;;-145.69;100.00;52600.84;5112996;28;20201;-79
2022/11/15 01:49:01;;;;;;;4.20;1.53;;;;;;;-145.69;100.00;52600.84;5112274;28;20252;-79
2022/11/15 01:51:31;;;;;;;2.30;1.30;;;;;;;-145.69;100.00;52618.66;5113094;28;20212;-79
2022/11/15 01:54:08;;;;;;;14.93;1.73;;;;;;;-145.69;100.00;52614.72;5112821;28;20199;-79
2022/11/15 01:56:39;;;;;;;4.60;1.40;;;;;;;-145.69;100.00;52622.63;5113081;28;20211;-79
2022/11/15 01:59:08;;;;;;;4.33;1.13;;;;;;;-145.69;100.00;52553.31;5109724;28;20556;-79
2022/11/15 02:01:38;;;;;;;2.00;1.13;;;;;;;-145.69;100.00;52606.78;5112281;28;20193;-79
2022/11/15 02:04:14;;;;;;;3.07;1.53;;;;;;;-145.69;100.00;52594.91;5112784;28;20189;-79
2022/11/15 02:06:41;;;;;;;2.53;1.50;;;;;;;-145.69;100.00;52600.84;5092297;28;20204;-79
2022/11/15 02:09:08;;;;;;;6.23;1.47;;;;;;;-145.69;100.00;52630.53;5092223;28;20704;-79
2022/11/15 02:11:35;;;;;;;4.80;1.67;;;;;;;-145.69;100.00;52602.81;5092390;28;20736;-79
2022/11/15 02:14:04;;;;;;;3.27;1.30;;;;;;;-145.69;100.00;52638.47;5092080;28;20561;-79
2022/11/15 02:16:36;;;;;;;2.27;1.23;;;;;;;-145.69;100.00;52634.50;5092822;28;20205;-79
2022/11/15 02:19:22;;;;;;;6.97;1.70;;;;;;;-145.69;100.00;52602.81;5095988;28;20202;-78
2022/11/15 02:22:04;;;;;;;2.10;1.10;;;;;;;-145.69;100.00;52622.63;5096207;28;20251;-79
2022/11/15 02:25:08;;;;;;;1.43;1.20;;;;;;;-145.69;100.00;52586.97;5095480;28;20194;-79
2022/11/15 02:28:05;;;;;;;10.63;1.30;;;;;;;-145.69;100.00;52598.84;5093583;28;20222;-79
2022/11/15 02:30:53;;;;;;;1.73;1.10;;;;;;;-145.69;100.00;52602.81;5096034;28;20202;-79
2022/11/15 02:33:35;;;;;;;2.97;1.20;;;;;;;-145.69;100.00;52598.84;5098152;27;20201;-79
2022/11/15 02:36:03;;;;;;;4.40;1.20;;;;;;;-145.69;100.00;52620.66;5095532;28;20229;-79
2022/11/15 02:38:41;;;;;;;1.57;0.97;;;;;;;-145.69;100.00;52586.97;5095720;28;20209;-79
2022/11/15 02:41:11;;;;;;;4.57;1.50;;;;;;;-145.69;100.00;52586.97;5095611;28;20202;-79
2022/11/15 02:43:58;;;;;;;2.97;1.50;;;;;;;-145.69;100.00;52598.84;5095390;28;20194;-79
2022/11/15 02:49:18;;;;;;;6.77;1.30;;;;;;;-145.69;100.00;52606.78;5095461;28;20584;-79
2022/11/15 02:51:48;;;;;;;3.77;1.40;;;;;;;-145.69;100.00;52594.91;5095347;28;20206;-79
2022/11/15 02:54:18;;;;;;;2.87;1.57;;;;;;;-145.69;100.00;52616.69;5095271;28;20202;-78
2022/11/15 02:56:46;;;;;;;4.53;1.20;;;;;;;-145.69;100.00;52598.84;5095037;28;20727;-79
2022/11/15 02:59:44;;;;;;;2.17;1.20;;;;;;;-145.69;100.00;52612.72;5095304;28;20440;-79
2022/11/15 03:02:25;;;;;;;3.30;1.20;;;;;;;-145.69;100.00;52608.75;5094636;28;20202;-79
2022/11/15 03:04:56;;;;;;;2.37;1.43;;;;;;;-145.69;100.00;52579.06;5106826;28;20200;-79
2022/11/15 03:07:30;;;;;;;1.93;1.20;;;;;;;-145.69;100.00;52571.13;5115313;28;20202;-79
2022/11/15 03:10:04;;;;;;;3.53;1.20;;;;;;;-145.69;100.00;52594.91;5115635;28;20197;-79
2022/11/15 03:12:38;;;;;;;2.67;1.20;;;;;;;-145.69;100.00;52553.31;5115696;28;20292;-79
2022/11/15 03:15:12;;;;;;;2.10;1.10;;;;;;;-145.69;100.00;52569.16;5115287;28;20205;-79
2022/11/15 03:17:44;;;;;;;2.10;1.00;;;;;;;-145.69;100.00;52569.16;5115678;28;20197;-79
2022/11/15 03:20:14;;;;;;;3.67;1.37;;;;;;;-145.69;100.00;52547.38;5115469;28;20200;-80
2022/11/15 03:22:44;;;;;;;1.80;1.30;;;;;;;-145.69;100.00;52586.97;5115104;28;20197;-79
2022/11/15 03:25:18;;;;;;;1.87;1.07;;;;;;;-145.69;100.00;52606.78;5115220;28;20208;-79
2022/11/15 03:27:50;;;;;;;4.70;1.27;;;;;;;-145.69;100.00;52553.31;5114184;28;20193;-79
2022/11/15 03:30:19;;;;;;;6.47;1.60;;;;;;;-145.69;100.00;52579.06;5115211;28;20566;-79
2022/11/15 03:32:50;;;;;;;6.43;1.20;;;;;;;-145.69;100.00;52569.16;5114949;28;20201;-79
2022/11/15 03:35:21;;;;;;;1.90;1.23;;;;;;;-145.69;100.00;52579.06;5114432;28;20332;-79
2022/11/15 03:37:58;;;;;;;2.20;1.03;;;;;;;-145.69;100.00;52569.16;5114941;28;20200;-79
2022/11/15 03:40:31;;;;;;;1.53;1.03;;;;;;;-145.69;100.00;52630.53;5115129;28;20276;-79
2022/11/15 03:43:04;;;;;;;4.67;1.33;;;;;;;-145.69;100.00;52585.00;5114969;28;20204;-79
2022/11/15 03:45:36;;;;;;;2.53;1.30;;;;;;;-145.69;100.00;52586.97;5114907;28;20197;-79
2022/11/15 03:48:11;;;;;;;3.13;1.23;;;;;;;-145.69;100.00;52579.06;5114629;28;20229;-79
2022/11/15 03:50:38;;;;;;;4.03;1.20;;;;;;;-145.69;100.00;52590.94;5114361;28;20204;-79
2022/11/15 03:53:04;;;;;;;1.63;1.30;;;;;;;-145.69;100.00;52583.00;5112184;28;20202;-79
2022/11/15 03:55:33;;;;;;;3.00;1.10;;;;;;;-145.69;100.00;52586.97;5095678;28;20212;-79
2022/11/15 03:58:01;;;;;;;4.13;1.30;;;;;;;-145.69;100.00;52573.13;5093669;28;20202;-79
2022/11/15 04:00:28;;;;;;;1.13;1.00;;;;;;;-145.69;100.00;52561.22;5093880;28;20289;-80
2022/11/15 04:02:55;;;;;;;3.23;1.40;;;;;;;-145.69;100.00;52594.91;5093713;28;20202;-79
2022/11/15 04:05:23;;;;;;;5.63;0.97;;;;;;;-145.69;100.00;52596.88;5109404;28;20323;-80
2022/11/15 04:07:49;;;;;;;1.57;1.10;;;;;;;-145.69;100.00;52583.00;5114259;28;20193;-80
2022/11/15 04:10:16;;;;;;;3.90;1.20;;;;;;;-145.69;100.00;52563.22;5114221;28;20201;-80
2022/11/15 04:12:47;;;;;;;11.10;1.57;;;;;;;-145.69;100.00;52579.06;5113639;28;20406;-80
2022/11/15 04:15:15;;;;;;;4.47;1.53;;;;;;;-145.69;100.00;52586.97;5113998;28;20198;-80
2022/11/15 04:17:44;;;;;;;4.10;1.10;;;;;;;-145.69;100.00;52592.91;5113938;28;20198;-80
2022/11/15 04:25:45;;;;;;;1.40;1.07;;;;;;;-145.69;100.00;52594.91;5113756;28;20547;-78
2022/11/15 04:28:12;;;;;;;9.13;1.20;;;;;;;-145.69;100.00;52577.06;5113622;28;20232;-79
2022/11/15 04:30:39;;;;;;;1.70;1.30;;;;;;;-145.69;100.00;52600.84;5114012;28;20591;-79
2022/11/15 04:33:06;;;;;;;6.77;1.30;;;;;;;-145.69;100.00;52557.28;5113634;28;20197;-79
2022/11/15 04:35:33;;;;;;;4.77;1.20;;;;;;;-145.69;100.00;52586.97;5113608;28;20233;-79
2022/11/15 04:38:01;;;;;;;3.03;1.30;;;;;;;-145.69;100.00;52585.00;5113659;28;20193;-79
2022/11/15 04:40:27;;;;;;;3.57;1.40;;;;;;;-145.69;100.00;52590.94;5113050;28;20567;-79
2022/11/15 04:42:54;;;;;;;3.70;1.17;;;;;;;-145.69;100.00;52590.94;5113841;28;20648;-79
2022/11/15 04:45:20;;;;;;;4.10;1.20;;;;;;;-145.69;100.00;52610.75;5113808;28;20202;-79
2022/11/15 04:47:47;;;;;;;5.80;1.43;;;;;;;-145.69;100.00;52602.81;5113324;28;20208;-79
2022/11/15 04:50:16;;;;;;;2.37;1.60;;;;;;;-145.69;100.00;52579.06;5113265;28;20261;-78
2022/11/15 04:52:44;;;;;;;4.27;1.30;;;;;;;-145.69;100.00;52551.31;5113626;28;20564;-79
2022/11/15 04:55:11;;;;;;;1.63;1.20;;;;;;;-145.69;100.00;52592.91;5113464;28;20207;-79
2022/11/15 04:57:38;;;;;;;3.47;1.37;;;;;;;-145.69;100.00;52596.88;5113294;28;20205;-79
2022/11/15 05:00:07;;;;;;;6.50;1.60;;;;;;;-145.69;100.00;52583.00;5123758;27;20200;-79
2022/11/15 05:05:14;;;;;;;1.87;1.27;;;;;;;-145.69;100.00;52594.91;5118743;27;20698;-78
2022/11/15 05:07:41;;;;;;;6.13;1.60;;;;;;;-145.69;100.00;52573.13;5113145;28;20194;-78
2022/11/15 05:10:08;;;;;;;2.67;1.17;;;;;;;-145.69;100.00;52628.56;5113247;28;20236;-78
2022/11/15 05:12:36;;;;;;;3.00;1.30;;;;;;;-145.69;100.00;52598.84;5113267;28;20556;-78
2022/11/15 05:15:03;;;;;;;4.47;1.23;;;;;;;-145.69;100.00;52575.09;5112950;28;20220;-78
2022/11/15 05:17:29;;;;;;;3.13;1.20;;;;;;;-145.69;100.00;52586.97;5113123;28;20207;-78
2022/11/15 05:19:56;;;;;;;2.00;1.13;;;;;;;-145.69;100.00;52594.91;5113129;28;20541;-79
2022/11/15 05:22:23;;;;;;;5.10;1.40;;;;;;;-145.69;100.00;52569.16;5112984;28;20197;-78
2022/11/15 05:24:49;;;;;;;4.90;1.30;;;;;;;-145.69;100.00;52577.06;5112574;28;20284;-78
2022/11/15 05:27:16;;;;;;;2.10;1.43;;;;;;;-145.69;100.00;52583.00;5113265;28;20204;-78
2022/11/15 05:29:44;;;;;;;4.27;1.37;;;;;;;-145.69;100.00;52581.03;5113020;28;20221;-78
2022/11/15 05:32:12;;;;;;;3.13;1.07;;;;;;;-145.69;100.00;52561.22;5112831;28;20204;-78
2022/11/15 05:34:39;;;;;;;3.80;1.33;;;;;;;-145.69;100.00;52581.03;5112282;28;20225;-78
2022/11/15 05:37:06;;;;;;;1.93;1.10;;;;;;;-145.69;100.00;52598.84;5112934;28;20232;-78
2022/11/15 05:39:32;;;;;;;1.90;1.43;;;;;;;-145.69;100.00;52604.81;5113195;28;20269;-78
2022/11/15 05:42:07;;;;;;;2.20;1.27;;;;;;;-145.69;100.00;52614.72;5112610;28;20208;-77
2022/11/15 05:44:36;;;;;;;2.90;1.40;;;;;;;-145.69;100.00;52571.13;5113029;28;20562;-79
2022/11/15 05:47:10;;;;;;;1.40;1.03;;;;;;;-145.69;100.00;52586.97;5112917;28;20644;-78
2022/11/15 05:49:40;;;;;;;6.43;1.17;;;;;;;-145.69;100.00;52614.72;5113018;28;20224;-79
2022/11/15 05:52:09;;;;;;;6.30;1.30;;;;;;;-145.69;100.00;52545.38;5114433;28;20193;-79
2022/11/15 05:54:37;;;;;;;9.93;1.47;;;;;;;-145.69;100.00;52563.22;5116849;28;20647;-78
2022/11/15 05:57:05;;;;;;;4.03;1.20;;;;;;;-145.69;100.00;52622.63;5116755;28;20535;-78
2022/11/15 05:59:33;;;;;;;3.13;1.30;;;;;;;-145.69;100.00;52575.09;5114707;28;20193;-78
2022/11/15 06:02:00;;;;;;;4.80;1.27;;;;;;;-145.69;100.00;52581.03;5116399;28;20197;-78
2022/11/15 06:04:28;;;;;;;4.10;1.50;;;;;;;-145.69;100.00;52614.72;5116489;28;20598;-79
2022/11/15 06:06:55;;;;;;;4.90;1.50;;;;;;;-145.69;100.00;52586.97;5116599;28;20198;-78
2022/11/15 06:09:21;;;;;;;5.20;1.40;;;;;;;-145.69;100.00;52596.88;5116142;28;20257;-79
2022/11/15 06:11:48;;;;;;;3.37;1.27;;;;;;;-145.69;100.00;52608.75;5116216;28;20280;-78
2022/11/15 06:14:14;;;;;;;4.80;1.60;;;;;;;-145.69;100.00;52622.63;5116392;28;20660;-78
2022/11/15 06:16:41;;;;;;;5.03;1.57;;;;;;;-145.69;100.00;52598.84;5116528;28;20202;-78
2022/11/15 06:19:08;;;;;;;3.70;1.23;;;;;;;-145.69;100.00;52596.88;5115908;28;20201;-79
2022/11/15 06:21:36;;;;;;;3.80;1.77;;;;;;;-145.69;100.00;52614.72;5116298;28;20292;-79
2022/11/15 06:24:02;;;;;;;2.23;1.40;;;;;;;-145.69;100.00;52618.66;5116542;28;20288;-79
2022/11/15 06:26:29;;;;;;;3.60;1.97;;;;;;;-145.69;100.00;52571.13;5116093;28;20209;-79
2022/11/15 06:28:55;;;;;;;2.30;1.33;;;;;;;-145.69;100.00;52579.06;5115912;28;20319;-80
2022/11/15 06:31:22;;;;;;;2.53;1.77;;;;;;;-145.69;100.00;52573.13;5116491;28;20197;-77
2022/11/15 06:33:49;;;;;;;5.57;1.77;;;;;;;-145.69;100.00;52571.13;5116362;28;20194;-77
2022/11/15 06:36:16;;;;;;;2.80;1.63;;;;;;;-145.69;100.00;52583.00;5115909;28;20241;-77
2022/11/15 06:38:45;;;;;;;3.33;1.80;;;;;;;-145.69;100.00;52575.09;5116215;28;20296;-76
2022/11/15 06:41:12;;;;;;;5.33;1.80;;;;;;;-145.69;100.00;52575.09;5115575;28;20649;-76
2022/11/15 06:43:39;;;;;;;5.43;1.97;;;;;;;-145.69;100.00;52579.06;5115807;28;20280;-76
2022/11/15 06:46:06;;;;;;;3.57;1.70;;;;;;;-145.69;100.00;52608.75;5115711;28;20212;-76
2022/11/15 06:48:34;;;;;;;3.03;1.80;;;;;;;-145.69;100.00;52586.97;5116018;28;20201;-76
2022/11/15 06:51:02;;;;;;;3.70;1.93;;;;;;;-145.69;100.00;52596.88;5115939;28;20201;-76
2022/11/15 06:53:30;;;;;;;3.63;1.80;;;;;;;-145.69;100.00;52598.84;5115461;28;20212;-76
2022/11/15 06:56:01;;;;;;;5.00;1.87;;;;;;;-145.69;100.00;52586.97;5115576;28;20212;-76
2022/11/15 06:58:28;;;;;;;3.77;1.60;;;;;;;-145.69;100.00;52588.97;5116089;28;20262;-76
2022/11/15 07:00:58;;;;;;;10.03;1.60;;;;;;;-145.69;100.00;52630.53;5115752;28;20201;-75
2022/11/15 07:03:25;;;;;;;3.67;2.20;;;;;;;-145.69;100.00;52583.00;5114408;28;20202;-76
2022/11/15 07:05:54;;;;;;;3.70;1.77;;;;;;;-145.69;100.00;52559.25;5115471;28;20198;-76
2022/11/15 07:08:20;;;;;;;4.40;1.80;;;;;;;-145.69;100.00;52586.97;5115434;28;20227;-76
2022/11/15 07:10:47;;;;;;;4.30;1.73;;;;;;;-145.69;100.00;52600.84;5115048;28;20229;-76
2022/11/15 07:13:15;;;;;;;5.27;1.70;;;;;;;-145.69;100.00;52579.06;5115633;28;20205;-76
2022/11/15 07:15:42;;;;;;;3.20;1.43;;;;;;;-145.69;100.00;52606.78;5115552;28;20208;-76
2022/11/15 07:18:08;;;;;;;3.97;1.63;;;;;;;-145.69;100.00;52555.28;5115369;28;20564;-76
2022/11/15 07:20:35;;;;;;;1.83;1.50;;;;;;;-145.69;100.00;52571.13;5115034;28;20201;-76
2022/11/15 07:23:02;;;;;;;3.27;1.60;;;;;;;-145.69;100.00;52592.91;5114933;28;20197;-77
2022/11/15 07:25:28;;;;;;;5.03;1.70;;;;;;;-145.69;100.00;52567.16;5115173;28;20205;-76
2022/11/15 07:27:56;;;;;;;4.27;1.80;;;;;;;-145.69;100.00;52543.41;5115339;28;20217;-76
2022/11/15 07:30:24;;;;;;;6.87;2.30;;;;;;;-145.69;100.00;52553.31;5114420;28;20229;-77
2022/11/15 07:32:53;;;;;;;5.43;1.60;;;;;;;-145.69;100.00;52569.16;5114818;28;20643;-77
2022/11/15 07:35:20;;;;;;;4.17;1.50;;;;;;;-145.69;100.00;52573.13;5114716;28;20225;-77
2022/11/15 07:37:54;;;;;;;5.80;1.70;;;;;;;-145.69;100.00;52551.31;5114686;28;20201;-77
2022/11/15 07:40:21;;;;;;;5.47;1.80;;;;;;;-145.69;100.00;52575.09;5114609;28;20200;-76
2022/11/15 07:42:53;;;;;;;4.33;1.90;;;;;;;-145.69;100.00;52563.22;5114962;28;20212;-76
2022/11/15 07:45:20;;;;;;;3.07;1.53;;;;;;;-145.69;100.00;52559.25;5114975;28;20209;-77
2022/11/15 07:47:48;;;;;;;6.45;1.70;;;;;;;-145.69;100.00;52579.06;5114128;28;20431;-76
2022/11/15 07:50:15;;;;;;;4.90;1.53;;;;;;;-145.69;100.00;52547.38;5114398;28;20225;-76
2022/11/15 07:52:41;;;;;;;3.17;1.60;;;;;;;-145.69;100.00;52561.22;5114675;28;20676;-76
2022/11/15 07:55:09;;;;;;;2.37;1.77;;;;;;;-145.69;100.00;52547.38;5114704;28;20211;-77
2022/11/15 07:57:36;;;;;;;3.33;1.67;;;;;;;-145.69;100.00;52563.22;5113983;28;20203;-77
2022/11/15 08:00:04;;;;;;;8.17;1.67;;;;;;;-145.69;100.00;52557.28;5114564;28;20288;-77
2022/11/15 08:02:30;;;;;;;3.93;1.87;;;;;;;-145.69;100.00;52583.00;5114426;28;20229;-77
2022/11/15 08:04:58;;;;;;;5.80;1.80;;;;;;;-145.69;100.00;52565.19;5114321;28;20204;-77
2022/11/15 08:07:25;;;;;;;2.38;1.60;;;;;;;-145.69;100.00;52573.13;5113698;28;20254;-76
2022/11/15 08:09:52;;;;;;;4.63;1.50;;;;;;;-145.69;100.00;52555.28;5102200;28;20221;-78
2022/11/15 08:12:18;;;;;;;2.83;1.40;;;;;;;-145.69;100.00;52586.97;5093922;28;20648;-78
2022/11/15 08:14:45;;;;;;;4.47;1.47;;;;;;;-145.69;100.00;52561.22;5093666;28;20198;-78
2022/11/15 08:17:11;;;;;;;2.93;1.30;;;;;;;-145.69;100.00;52575.09;5132023;27;20661;-77
2022/11/15 08:19:38;;;;;;;3.17;1.40;;;;;;;-145.69;100.00;52561.22;5134936;27;20205;-78
2022/11/15 08:22:06;;;;;;;2.50;1.30;;;;;;;-145.69;100.00;52523.59;5135143;27;20283;-78
2022/11/15 08:24:32;;;;;;;3.07;1.40;;;;;;;-145.69;100.00;52557.28;5134160;27;20291;-77
2022/11/15 08:26:59;;;;;;;2.30;1.53;;;;;;;-145.69;100.00;52563.22;5134642;27;20196;-78
2022/11/15 08:29:26;;;;;;;2.63;1.17;;;;;;;-145.69;100.00;52545.38;5134522;27;20227;-78
2022/11/15 08:31:52;;;;;;;3.35;1.17;;;;;;;-145.69;100.00;52533.50;5134255;27;20244;-78
2022/11/15 08:34:18;;;;;;;3.13;1.30;;;;;;;-145.69;100.00;52513.69;5134486;27;20197;-78
2022/11/15 08:36:45;;;;;;;2.37;1.27;;;;;;;-145.69;100.00;52537.47;5134415;27;20228;-78
2022/11/15 08:39:13;;;;;;;6.38;1.10;;;;;;;-145.69;100.00;52507.75;5134657;27;20220;-79
2022/11/15 08:41:40;;;;;;;6.63;1.40;;;;;;;-145.69;100.00;52567.16;5134147;27;20201;-78
2022/11/15 08:44:06;;;;;;;5.72;1.20;;;;;;;-145.69;100.00;52511.72;5133849;27;20192;-76
2022/11/15 08:46:33;;;;;;;3.53;1.30;;;;;;;-145.69;100.00;52537.47;5134083;27;20204;-77
2022/11/15 08:48:59;;;;;;;4.32;1.48;;;;;;;-145.69;100.00;52507.75;5134416;27;20203;-77
2022/11/15 08:51:26;;;;;;;2.88;1.48;;;;;;;-145.69;100.00;52547.38;5133564;27;20197;-76
2022/11/15 08:53:52;;;;;;;2.40;1.30;;;;;;;-145.69;100.00;52511.72;5134200;27;20291;-77
2022/11/15 08:56:20;;;;;;;3.97;1.35;;;;;;;-145.69;100.00;52543.41;5134282;27;20591;-77
2022/11/15 08:58:47;;;;;;;4.53;1.23;;;;;;;-145.69;100.00;52525.59;5133838;27;20644;-78
2022/11/15 09:01:17;;;;;;;4.35;1.23;;;;;;;-145.69;100.00;52533.50;5134236;27;20204;-77
2022/11/15 09:03:43;;;;;;;5.38;1.63;;;;;;;-145.69;100.00;52515.69;5131792;27;20284;-77
2022/11/15 09:06:10;;;;;;;2.22;1.25;;;;;;;-145.69;100.00;52523.59;5113354;28;20204;-77
2022/11/15 09:08:37;;;;;;;2.78;1.13;;;;;;;-145.69;100.00;52505.78;5113307;28;20197;-77
2022/11/15 09:11:04;;;;;;;5.22;1.70;;;;;;;-145.69;100.00;52513.69;5113278;28;20235;-77
2022/11/15 09:13:33;;;;;;;6.90;1.60;;;;;;;-145.69;100.00;52503.81;5112838;28;20250;-77
2022/11/15 09:16:00;;;;;;;2.85;1.10;;;;;;;-145.69;100.00;52507.75;5113444;28;20228;-77
2022/11/15 09:18:27;;;;;;;3.65;1.30;;;;;;;-145.69;100.00;52505.78;5113167;28;20197;-77
2022/11/15 09:20:56;;;;;;;1.95;1.17;;;;;;;-145.69;100.00;52509.75;5113127;28;20620;-77
2022/11/15 09:23:23;;;;;;;3.45;1.35;;;;;;;-145.69;100.00;52509.75;5113369;28;20205;-77
2022/11/15 09:25:50;;;;;;;3.00;1.30;;;;;;;-145.69;100.00;52491.91;5113058;28;20292;-77
2022/11/15 09:28:16;;;;;;;2.92;1.30;;;;;;;-145.69;100.00;52474.09;5116769;28;20197;-78
2022/11/15 09:30:44;;;;;;;6.28;1.50;;;;;;;-145.69;100.00;52509.75;5117481;28;20255;-79
2022/11/15 09:33:12;;;;;;;2.22;1.10;;;;;;;-145.69;100.00;52507.75;5117604;28;20690;-77
2022/11/15 09:35:40;;;;;;;6.57;1.48;;;;;;;-145.69;100.00;52519.63;5119123;27;20236;-77
2022/11/15 09:38:07;;;;;;;2.67;1.30;;;;;;;-145.69;100.00;52521.63;5117119;28;20193;-77
2022/11/15 09:40:37;;;;;;;2.72;1.30;;;;;;;-145.69;100.00;52515.69;5117238;28;20196;-78
2022/11/15 09:43:29;;;;;;;4.43;1.70;;;;;;;-145.69;100.00;52511.72;5117411;28;20204;-78
2022/11/15 09:46:08;;;;;;;3.25;1.23;;;;;;;-145.69;100.00;52480.03;5117340;28;20272;-78
2022/11/15 09:48:50;;;;;;;2.58;1.17;;;;;;;-145.69;100.00;52505.78;5116975;28;20201;-79
2022/11/15 09:51:26;;;;;;;6.95;1.30;;;;;;;-145.69;100.00;52480.03;5116730;28;20687;-76
2022/11/15 09:53:59;;;;;;;2.47;1.35;;;;;;;-145.69;100.00;52476.06;5116972;27;20207;-77
2022/11/15 09:56:30;;;;;;;1.55;0.95;;;;;;;-145.69;98.99;52480.03;5117117;28;20288;-77
2022/11/15 09:59:05;;;;;;;1.10;0.77;;;;;;;-145.69;89.95;52499.84;5116836;28;20236;-77
2022/11/15 10:01:42;;;;;;;2.63;1.17;;;;;;;-145.69;94.25;52462.22;5116730;28;20582;-77
2022/11/15 10:04:09;;;;;;;2.40;1.10;;;;;;;-145.69;94.28;52466.16;5116961;28;20197;-77
2022/11/15 10:06:41;;;;;;;1.38;1.10;;;;;;;-145.69;96.18;52452.31;5116870;28;20199;-78
2022/11/15 10:09:16;;;;;;;2.25;1.10;;;;;;;-145.69;93.80;52452.31;5116664;28;20197;-78
2022/11/15 10:11:43;;;;;;;2.65;1.02;;;;;;;-145.69;95.17;52482.00;5111944;28;20224;-77
2022/11/15 10:14:14;;;;;;;4.03;1.10;;;;;;;-145.69;96.55;52450.31;5096444;28;20202;-78
2022/11/15 10:17:09;;;;;;;1.33;0.90;;;;;;;-145.69;96.86;52458.25;5096113;28;20202;-77
2022/11/15 10:19:42;;;;;;;3.05;1.30;;;;;;;-145.69;96.16;52458.25;5096208;28;20217;-77
2022/11/15 10:22:23;;;;;;;1.20;1.05;;;;;;;-145.69;94.40;52464.19;5095676;28;20564;-78
2022/11/15 10:24:53;;;;;;;3.75;1.08;;;;;;;-145.69;96.81;52440.44;5096229;28;20208;-77
2022/11/15 10:27:20;;;;;;;1.38;1.02;;;;;;;-145.69;91.69;52456.28;5095521;28;20217;-77
2022/11/15 10:29:48;;;;;;;3.83;0.90;;;;;;;-145.69;93.60;52470.13;5095653;28;20213;-76
2022/11/15 10:32:19;;;;;;;3.22;1.13;;;;;;;-145.69;93.08;52460.22;5095930;28;20683;-78
2022/11/15 10:34:47;;;;;;;4.38;1.08;;;;;;;-145.69;93.37;52434.47;5095489;28;20202;-78
2022/11/15 10:37:14;;;;;;;1.42;1.10;;;;;;;-145.69;97.36;52470.13;5095372;28;20226;-76
2022/11/15 10:39:41;;;;;;;1.88;1.00;;;;;;;-145.69;93.43;52448.34;5095842;28;20201;-77
2022/11/15 10:42:19;;;;;;;2.30;1.00;;;;;;;-145.69;90.80;52446.38;5095772;28;20205;-77
2022/11/15 10:44:50;;;;;;;7.03;1.20;;;;;;;-145.69;94.60;52452.31;5095507;28;20200;-77
2022/11/15 10:47:34;;;;;;;3.95;0.98;;;;;;;-145.69;95.85;52460.22;5095248;28;20676;-76
2022/11/15 10:50:07;;;;;;;2.88;1.00;;;;;;;-145.69;92.29;52420.63;5095437;28;20313;-77
2022/11/15 10:52:35;;;;;;;3.58;1.15;;;;;;;-145.69;92.44;52456.28;5095665;28;20546;-77
2022/11/15 10:55:07;;;;;;;2.60;1.10;;;;;;;-145.69;90.10;52434.47;5094259;28;20443;-77
2022/11/15 10:57:38;;;;;;;1.90;0.90;;;;;;;-145.69;87.75;52487.97;5095015;28;20202;-77
2022/11/15 11:00:08;;;;;;;1.70;0.90;;;;;;;-145.69;88.47;52438.44;5095714;28;20217;-77
2022/11/15 11:02:38;;;;;;;1.20;1.02;;;;;;;-145.69;92.65;52428.53;5095402;28;20202;-77
2022/11/15 11:05:25;;;;;;;1.42;1.02;;;;;;;-145.69;93.24;52466.16;5108666;28;20713;-78
2022/11/15 11:07:57;;;;;;;1.23;0.80;;;;;;;-145.69;91.61;52432.50;5106391;28;20326;-78
2022/11/15 11:10:24;;;;;;;1.65;0.90;;;;;;;-145.69;88.69;52452.31;5114620;28;20220;-78
2022/11/15 11:12:52;;;;;;;1.63;0.85;;;;;;;-145.69;89.09;52432.50;5115386;28;20197;-78
2022/11/15 11:15:19;;;;;;;4.05;1.17;;;;;;;-145.69;88.67;52476.06;5115345;28;20287;-78
2022/11/15 11:18:01;;;;;;;3.67;1.70;;;;;;;-145.69;91.91;52456.28;5115526;28;20208;-78
2022/11/15 11:20:34;;;;;;;1.85;1.00;;;;;;;-145.69;92.96;52416.66;5115099;28;20217;-78
2022/11/15 11:23:12;;;;;;;1.50;0.93;;;;;;;-145.69;92.94;52440.44;5115450;28;20208;-77
2022/11/15 11:25:49;;;;;;;1.25;0.88;;;;;;;-145.69;86.68;52424.59;5115147;28;20197;-78
2022/11/15 11:28:32;;;;;;;2.65;1.00;;;;;;;-145.69;88.31;52468.16;5115108;28;20208;-79
2022/11/15 11:31:08;;;;;;;3.58;1.13;;;;;;;-145.69;90.51;52436.47;5115899;27;20197;-78